createdAt,value
2019-02-18T00:01:21.014Z,73.96
2019-02-18T00:03:52.281Z,73.76
2019-02-18T00:06:23.536Z,73.22
2019-02-18T00:08:54.842Z,73.61
2019-02-18T00:11:26.080Z,73.92
2019-02-18T00:13:57.329Z,73.91
2019-02-18T00:16:28.518Z,74.25
2019-02-18T00:18:59.808Z,74.12
2019-02-18T00:21:31.018Z,73.66
2019-02-18T00:24:02.272Z,74.12
2019-02-18T00:26:33.580Z,73.44
2019-02-18T00:29:04.828Z,73.16
2019-02-18T00:31:36.060Z,74.20
2019-02-18T00:34:07.312Z,74.50
2019-02-18T00:36:38.707Z,74.54
2019-02-18T00:39:10.002Z,73.82
2019-02-18T00:41:41.264Z,74.20
2019-02-18T00:44:12.516Z,74.71
2019-02-18T00:46:46.640Z,75.03
2019-02-18T00:49:17.834Z,74.91
2019-02-18T00:51:49.133Z,74.59
2019-02-18T00:54:20.371Z,75.01
2019-02-18T00:56:51.662Z,76.15
2019-02-18T00:59:25.629Z,75.66
2019-02-18T01:01:57.034Z,73.35
2019-02-18T01:04:28.269Z,74.84
2019-02-18T01:06:59.672Z,74.20
2019-02-18T01:09:30.813Z,73.34
2019-02-18T01:12:02.130Z,72.46
2019-02-18T01:14:33.797Z,73.92
2019-02-18T01:17:05.103Z,75.19
2019-02-18T01:19:36.366Z,75.42
2019-02-18T01:22:07.530Z,75.70
2019-02-18T01:24:38.880Z,75.77
2019-02-18T01:27:10.116Z,75.17
2019-02-18T01:29:41.410Z,75.72
2019-02-18T01:32:12.555Z,75.27
2019-02-18T01:34:43.803Z,75.95
2019-02-18T01:37:15.001Z,76.66
2019-02-18T01:39:46.268Z,76.60
2019-02-18T01:42:17.497Z,75.93
2019-02-18T01:44:48.776Z,75.32
2019-02-18T01:47:20.039Z,76.28
2019-02-18T01:49:51.339Z,76.93
2019-02-18T01:52:22.536Z,77.49
2019-02-18T01:54:53.790Z,77.96
2019-02-18T01:57:25.136Z,78.29
2019-02-18T01:59:56.395Z,78.66
2019-02-18T02:02:27.653Z,78.58
2019-02-18T02:04:58.970Z,79.17
2019-02-18T02:07:55.707Z,79.23
2019-02-18T02:10:21.903Z,78.68
2019-02-18T02:12:54.626Z,77.98
2019-02-18T02:15:28.117Z,77.84
2019-02-18T02:17:59.360Z,77.87
2019-02-18T02:20:30.508Z,78.73
2019-02-18T02:23:01.743Z,78.57
2019-02-18T02:25:33.002Z,77.27
2019-02-18T02:28:04.263Z,78.57
2019-02-18T02:30:35.477Z,78.96
2019-02-18T02:33:06.698Z,79.19
2019-02-18T02:35:38.245Z,79.17
2019-02-18T02:38:09.533Z,79.40
2019-02-18T02:40:40.736Z,79.63
2019-02-18T02:43:11.926Z,79.80
2019-02-18T02:45:43.137Z,79.35
2019-02-18T02:48:14.474Z,79.40
2019-02-18T02:50:45.744Z,79.85
2019-02-18T02:53:16.973Z,79.95
2019-02-18T02:55:48.634Z,79.70
2019-02-18T02:58:19.783Z,79.89
2019-02-18T03:00:51.133Z,79.77
2019-02-18T03:03:22.377Z,79.60
2019-02-18T03:05:53.618Z,80.00
2019-02-18T03:08:24.814Z,80.63
2019-02-18T03:10:56.429Z,79.60
2019-02-18T03:13:27.697Z,80.24
2019-02-18T03:16:17.927Z,80.47
2019-02-18T03:18:49.219Z,79.68
2019-02-18T03:21:20.577Z,80.48
2019-02-18T03:23:51.845Z,79.65
2019-02-18T03:26:23.099Z,78.89
2019-02-18T03:29:58.013Z,78.76
2019-02-18T03:32:31.955Z,79.14
2019-02-18T03:35:03.104Z,79.07
2019-02-18T03:37:34.402Z,80.24
2019-02-18T03:40:05.865Z,80.61
2019-02-18T03:42:37.127Z,81.33
2019-02-18T03:45:08.418Z,82.42
2019-02-18T03:47:39.646Z,83.08
2019-02-18T03:50:10.993Z,84.28
2019-02-18T03:52:42.270Z,84.95
2019-02-18T03:55:13.472Z,85.60
2019-02-18T03:57:44.747Z,85.81
2019-02-18T04:00:16.105Z,85.72
2019-02-18T04:02:47.325Z,86.02
2019-02-18T04:05:18.600Z,86.50
2019-02-18T04:07:49.859Z,86.52
2019-02-18T04:10:21.144Z,86.88
2019-02-18T04:12:52.319Z,87.02
2019-02-18T04:15:23.596Z,87.33
2019-02-18T04:17:54.803Z,87.56
2019-02-18T04:20:26.088Z,87.54
2019-02-18T04:22:57.303Z,87.58
2019-02-18T04:25:47.467Z,87.62
2019-02-18T04:28:18.735Z,85.96
2019-02-18T04:30:50.081Z,85.53
2019-02-18T04:33:21.337Z,86.12
2019-02-18T04:35:52.596Z,86.12
2019-02-18T04:38:23.864Z,85.88
2019-02-18T04:40:55.135Z,85.53
2019-02-18T04:43:26.309Z,85.91
2019-02-18T04:45:57.606Z,86.26
2019-02-18T04:48:28.830Z,86.63
2019-02-18T04:51:00.130Z,87.19
2019-02-18T04:53:31.378Z,87.51
2019-02-18T04:56:02.692Z,87.83
2019-02-18T04:58:33.927Z,87.55
2019-02-18T05:01:05.183Z,86.88
2019-02-18T05:03:36.352Z,86.98
2019-02-18T05:06:07.648Z,87.90
2019-02-18T05:08:38.857Z,88.54
2019-02-18T05:11:10.059Z,88.20
2019-02-18T05:13:41.326Z,88.35
2019-02-18T05:16:12.582Z,88.91
2019-02-18T05:18:43.867Z,89.28
2019-02-18T05:21:15.122Z,89.26
2019-02-18T05:23:46.385Z,89.28
2019-02-18T05:26:17.629Z,89.49
2019-02-18T05:28:48.840Z,89.49
2019-02-18T05:31:20.061Z,89.65
2019-02-18T05:33:51.351Z,89.96
2019-02-18T05:36:22.536Z,90.51
2019-02-18T05:38:53.700Z,90.80
2019-02-18T05:41:24.974Z,90.89
2019-02-18T05:43:56.252Z,91.41
2019-02-18T05:46:27.583Z,91.25
2019-02-18T05:48:58.805Z,91.08
2019-02-18T05:51:30.027Z,91.22
2019-02-18T05:54:01.306Z,91.39
2019-02-18T05:56:32.508Z,91.64
2019-02-18T05:59:03.802Z,92.16
2019-02-18T06:01:35.042Z,92.06
2019-02-18T06:04:06.205Z,92.03
2019-02-18T06:06:37.391Z,92.07
2019-02-18T06:09:09.255Z,92.44
2019-02-18T06:11:40.413Z,92.57
2019-02-18T06:14:11.679Z,92.67
2019-02-18T06:16:42.878Z,92.53
2019-02-18T06:19:14.105Z,92.92
2019-02-18T06:21:45.395Z,92.89
2019-02-18T06:24:16.607Z,92.79
2019-02-18T06:26:47.913Z,93.06
2019-02-18T06:29:19.074Z,93.14
2019-02-18T06:31:50.314Z,93.22
2019-02-18T06:34:21.581Z,93.07
2019-02-18T06:36:52.883Z,93.27
2019-02-18T06:39:24.102Z,93.15
2019-02-18T06:41:55.362Z,93.51
2019-02-18T06:44:35.126Z,93.17
2019-02-18T06:47:10.889Z,92.83
2019-02-18T06:49:42.125Z,92.29
2019-02-18T06:52:13.346Z,90.30
2019-02-18T06:54:44.668Z,89.86
2019-02-18T06:57:37.711Z,89.42
2019-02-18T07:00:35.285Z,89.47
2019-02-18T07:03:18.586Z,89.57
2019-02-18T07:06:04.452Z,89.67
2019-02-18T07:08:56.079Z,88.91
2019-02-18T07:11:41.380Z,89.00
2019-02-18T07:14:12.675Z,89.39
2019-02-18T07:16:43.941Z,89.35
2019-02-18T07:19:15.175Z,89.60
2019-02-18T07:21:46.439Z,89.91
2019-02-18T07:24:17.680Z,90.07
2019-02-18T07:26:48.865Z,90.58
2019-02-18T07:29:20.154Z,88.89
2019-02-18T07:31:51.423Z,86.32
2019-02-18T07:34:22.664Z,82.79
2019-02-18T07:36:53.834Z,82.62
2019-02-18T07:39:25.063Z,82.87
2019-02-18T07:41:56.350Z,81.67
2019-02-18T07:44:27.633Z,81.61
2019-02-18T07:46:58.852Z,81.46
2019-02-18T07:49:30.122Z,81.37
2019-02-18T07:52:20.396Z,81.08
2019-02-18T07:54:51.533Z,81.11
2019-02-18T07:57:22.835Z,79.87
2019-02-18T07:59:54.186Z,79.05
2019-02-18T08:02:25.477Z,80.23
2019-02-18T08:04:56.687Z,77.87
2019-02-18T08:07:27.966Z,72.58
2019-02-18T08:09:59.217Z,67.72
2019-02-18T08:12:30.478Z,64.37
2019-02-18T08:15:01.756Z,58.90
2019-02-18T08:17:32.980Z,56.59
2019-02-18T08:20:04.396Z,53.91
2019-02-18T08:22:35.665Z,50.07
2019-02-18T08:25:07.413Z,51.70
2019-02-18T08:27:38.649Z,48.95
2019-02-18T08:30:12.087Z,47.94
2019-02-18T08:32:43.374Z,47.21
2019-02-18T08:35:14.703Z,46.35
2019-02-18T08:37:45.972Z,44.97
2019-02-18T08:40:22.548Z,44.53
2019-02-18T08:42:50.077Z,42.63
2019-02-18T08:45:21.346Z,42.78
2019-02-18T08:47:52.649Z,42.41
2019-02-18T08:50:23.886Z,40.72
2019-02-18T08:52:55.137Z,39.78
2019-02-18T08:55:26.404Z,40.42
2019-02-18T08:57:57.678Z,39.33
2019-02-18T09:00:28.901Z,38.44
2019-02-18T09:03:00.157Z,39.34
2019-02-18T09:05:31.337Z,38.81
2019-02-18T09:08:02.591Z,39.30
2019-02-18T09:10:34.192Z,39.69
2019-02-18T09:13:05.595Z,38.94
2019-02-18T09:15:36.851Z,37.76
2019-02-18T09:18:08.025Z,36.90
2019-02-18T09:20:39.297Z,36.18
2019-02-18T09:23:29.263Z,35.99
2019-02-18T09:26:02.289Z,36.39
2019-02-18T09:28:33.673Z,35.23
2019-02-18T09:31:04.985Z,35.67
2019-02-18T09:33:36.245Z,35.23
2019-02-18T09:36:07.545Z,34.87
2019-02-18T09:38:38.685Z,36.46
2019-02-18T09:41:09.906Z,36.79
2019-02-18T09:43:41.147Z,37.73
2019-02-18T09:46:12.392Z,39.15
2019-02-18T09:48:43.604Z,39.62
2019-02-18T09:51:14.896Z,39.38
2019-02-18T09:53:46.165Z,40.80
2019-02-18T09:56:17.431Z,40.43
2019-02-18T09:58:50.259Z,40.80
2019-02-18T10:01:21.695Z,41.20
2019-02-18T10:03:52.946Z,40.24
2019-02-18T10:06:24.193Z,40.60
2019-02-18T10:08:55.470Z,39.97
2019-02-18T10:11:26.805Z,39.36
2019-02-18T10:13:58.081Z,39.96
2019-02-18T10:16:29.347Z,40.62
2019-02-18T10:19:00.644Z,40.48
2019-02-18T10:21:31.890Z,40.73
2019-02-18T10:24:03.172Z,41.46
2019-02-18T10:26:34.346Z,40.08
2019-02-18T10:29:05.822Z,38.56
2019-02-18T10:31:37.029Z,38.78
2019-02-18T10:34:08.254Z,38.89
2019-02-18T10:36:39.496Z,39.45
2019-02-18T10:39:11.006Z,39.16
2019-02-18T10:41:42.230Z,39.14
2019-02-18T10:44:13.434Z,40.30
2019-02-18T10:46:44.643Z,39.42
2019-02-18T10:49:19.732Z,40.32
2019-02-18T10:51:48.727Z,38.87
2019-02-18T10:54:20.003Z,39.12
2019-02-18T10:56:51.297Z,37.95
2019-02-18T10:59:22.558Z,39.47
2019-02-18T11:01:53.831Z,37.80
2019-02-18T11:04:25.108Z,38.44
2019-02-18T11:06:56.361Z,39.21
2019-02-18T11:09:27.589Z,39.12
2019-02-18T11:11:58.901Z,38.07
2019-02-18T11:14:30.137Z,38.94
2019-02-18T11:17:01.473Z,39.06
2019-02-18T11:19:32.733Z,37.58
2019-02-18T11:22:04.014Z,37.91
2019-02-18T11:24:35.491Z,38.23
2019-02-18T11:27:06.783Z,37.80
2019-02-18T11:29:38.007Z,37.76
2019-02-18T11:32:09.275Z,36.46
2019-02-18T11:34:40.519Z,37.08
2019-02-18T11:37:13.763Z,37.25
2019-02-18T11:39:45.195Z,37.85
2019-02-18T11:42:16.395Z,38.67
2019-02-18T11:44:47.685Z,37.43
2019-02-18T11:47:18.841Z,37.30
2019-02-18T11:49:50.484Z,36.56
2019-02-18T11:52:21.748Z,36.83
2019-02-18T11:54:53.008Z,36.87
2019-02-18T11:57:24.281Z,37.28
2019-02-18T11:59:55.533Z,36.66
2019-02-18T12:02:26.850Z,36.75
2019-02-18T12:04:58.088Z,36.22
2019-02-18T12:07:29.386Z,36.21
2019-02-18T12:10:00.638Z,35.70
2019-02-18T12:12:31.955Z,36.61
2019-02-18T12:15:03.506Z,35.90
2019-02-18T12:17:34.779Z,35.79
2019-02-18T12:20:06.940Z,35.45
2019-02-18T12:22:38.151Z,36.39
2019-02-18T12:25:10.953Z,37.32
2019-02-18T12:27:46.444Z,36.13
2019-02-18T12:30:17.756Z,36.04
2019-02-18T12:32:49.074Z,36.32
2019-02-18T12:35:30.241Z,35.91
2019-02-18T12:37:55.526Z,36.82
2019-02-18T12:40:26.272Z,35.76
2019-02-18T12:42:57.494Z,36.15
2019-02-18T12:45:28.764Z,35.79
2019-02-18T12:48:00.029Z,35.69
2019-02-18T12:50:31.330Z,35.86
2019-02-18T12:53:02.612Z,35.32
2019-02-18T12:55:34.087Z,35.55
2019-02-18T12:58:05.550Z,34.99
2019-02-18T13:00:37.707Z,34.84
2019-02-18T13:03:09.133Z,35.19
2019-02-18T13:05:40.385Z,34.89
2019-02-18T13:08:11.670Z,34.35
2019-02-18T13:10:42.883Z,34.07
2019-02-18T13:13:14.229Z,33.58
2019-02-18T13:15:45.482Z,33.42
2019-02-18T13:18:16.784Z,34.41
2019-02-18T13:20:48.016Z,33.77
2019-02-18T13:23:19.399Z,34.70
2019-02-18T13:25:50.685Z,34.40
2019-02-18T13:28:21.963Z,33.39
2019-02-18T13:30:53.229Z,33.52
2019-02-18T13:33:24.472Z,33.73
2019-02-18T13:35:55.882Z,33.46
2019-02-18T13:38:27.148Z,34.26
2019-02-18T13:40:58.480Z,33.29
2019-02-18T13:43:29.711Z,33.60
2019-02-18T13:46:00.923Z,33.24
2019-02-18T13:48:32.639Z,32.86
2019-02-18T13:51:03.962Z,32.33
2019-02-18T13:53:35.190Z,31.47
2019-02-18T13:56:07.115Z,31.89
2019-02-18T13:58:38.476Z,30.86
2019-02-18T14:01:10.390Z,30.68
2019-02-18T14:03:41.638Z,31.12
2019-02-18T14:06:12.890Z,31.62
2019-02-18T14:08:44.173Z,30.88
2019-02-18T14:11:15.465Z,31.19
2019-02-18T14:13:47.182Z,31.79
2019-02-18T14:16:18.451Z,30.96
2019-02-18T14:18:49.882Z,30.82
2019-02-18T14:21:21.100Z,31.14
2019-02-18T14:23:52.440Z,30.93
2019-02-18T14:26:24.125Z,30.36
2019-02-18T14:28:55.360Z,30.65
2019-02-18T14:31:26.634Z,31.48
2019-02-18T14:33:57.963Z,31.76
2019-02-18T14:36:29.164Z,32.35
2019-02-18T14:39:00.707Z,32.84
2019-02-18T14:41:31.882Z,32.83
2019-02-18T14:44:03.126Z,32.66
2019-02-18T14:46:34.407Z,30.82
2019-02-18T14:49:05.779Z,32.07
2019-02-18T14:51:37.465Z,32.26
2019-02-18T14:54:08.787Z,32.63
2019-02-18T14:56:41.043Z,32.92
2019-02-18T14:59:12.408Z,32.64
2019-02-18T15:01:44.868Z,32.50
2019-02-18T15:04:16.371Z,32.88
2019-02-18T15:06:47.651Z,33.16
2019-02-18T15:09:19.473Z,33.07
2019-02-18T15:11:50.778Z,33.00
2019-02-18T15:14:22.074Z,32.55
2019-02-18T15:16:53.830Z,32.89
2019-02-18T15:19:25.085Z,32.63
2019-02-18T15:21:56.395Z,32.85
2019-02-18T15:24:27.728Z,32.13
2019-02-18T15:26:58.988Z,32.37
2019-02-18T15:29:30.239Z,32.25
2019-02-18T15:32:01.538Z,33.21
2019-02-18T15:34:32.823Z,32.81
2019-02-18T15:37:04.122Z,33.18
2019-02-18T15:39:35.398Z,33.53
2019-02-18T15:42:06.672Z,34.05
2019-02-18T15:44:37.960Z,34.16
2019-02-18T15:47:09.328Z,34.24
2019-02-18T15:49:40.638Z,34.10
2019-02-18T15:52:12.221Z,34.53
2019-02-18T15:54:43.573Z,34.21
2019-02-18T15:57:14.817Z,34.21
2019-02-18T15:59:46.174Z,34.52
2019-02-18T16:02:17.379Z,34.86
2019-02-18T16:04:48.724Z,34.84
2019-02-18T16:07:19.966Z,35.05
2019-02-18T16:09:51.273Z,35.62
2019-02-18T16:12:22.586Z,35.83
2019-02-18T16:14:53.808Z,36.49
2019-02-18T16:17:25.106Z,36.73
2019-02-18T16:19:56.350Z,37.05
2019-02-18T16:22:27.652Z,37.92
2019-02-18T16:24:58.907Z,37.99
2019-02-18T16:27:30.196Z,38.67
2019-02-18T16:30:02.853Z,38.88
2019-02-18T16:32:34.374Z,39.36
2019-02-18T16:35:06.042Z,39.65
2019-02-18T16:37:37.710Z,39.82
2019-02-18T16:40:11.710Z,40.12
2019-02-18T16:42:43.020Z,40.23
2019-02-18T16:45:15.418Z,40.40
2019-02-18T16:47:46.746Z,40.71
2019-02-18T16:50:18.059Z,41.28
2019-02-18T16:52:49.408Z,41.63
2019-02-18T16:55:20.662Z,42.48
2019-02-18T16:57:52.256Z,42.53
2019-02-18T17:00:32.592Z,42.91
2019-02-18T17:03:06.195Z,43.16
2019-02-18T17:05:37.444Z,43.25
2019-02-18T17:08:09.695Z,43.34
2019-02-18T17:10:41.059Z,43.54
2019-02-18T17:13:12.289Z,42.87
2019-02-18T17:15:43.718Z,40.93
2019-02-18T17:18:15.509Z,39.92
2019-02-18T17:20:46.869Z,39.78
2019-02-18T17:23:18.263Z,39.65
2019-02-18T17:25:49.977Z,39.68
2019-02-18T17:28:21.529Z,39.39
2019-02-18T17:30:52.913Z,39.41
2019-02-18T17:33:24.262Z,38.68
2019-02-18T17:35:55.513Z,38.36
2019-02-18T17:38:43.876Z,39.22
2019-02-18T17:41:15.194Z,38.61
2019-02-18T17:43:46.455Z,38.75
2019-02-18T17:46:17.816Z,38.67
2019-02-18T17:48:50.191Z,39.39
2019-02-18T17:51:21.475Z,40.02
2019-02-18T17:53:52.760Z,40.53
2019-02-18T17:56:24.046Z,40.85
2019-02-18T17:58:55.474Z,40.94
2019-02-18T18:01:27.342Z,40.97
2019-02-18T18:03:59.005Z,41.38
2019-02-18T18:06:30.473Z,40.72
2019-02-18T18:09:01.754Z,41.53
2019-02-18T18:11:33.452Z,41.62
2019-02-18T18:14:04.804Z,41.89
2019-02-18T18:16:36.151Z,41.61
2019-02-18T18:19:09.510Z,42.06
2019-02-18T18:21:41.217Z,42.55
2019-02-18T18:24:17.989Z,42.91
2019-02-18T18:26:49.574Z,42.77
2019-02-18T18:29:21.017Z,42.73
2019-02-18T18:31:52.371Z,43.28
2019-02-18T18:34:23.814Z,44.07
2019-02-18T18:36:55.226Z,44.00
2019-02-18T18:39:26.539Z,44.69
2019-02-18T18:41:57.885Z,45.31
2019-02-18T18:44:29.254Z,46.40
2019-02-18T18:47:00.553Z,46.55
2019-02-18T18:49:31.831Z,46.58
2019-02-18T18:52:03.117Z,46.91
2019-02-18T18:54:34.485Z,47.02
2019-02-18T18:57:05.950Z,47.00
2019-02-18T18:59:37.571Z,47.15
2019-02-18T19:02:09.006Z,47.70
2019-02-18T19:04:40.425Z,48.33
2019-02-18T19:07:11.821Z,48.12
2019-02-18T19:09:43.181Z,48.71
2019-02-18T19:12:14.793Z,48.88
2019-02-18T19:14:45.970Z,49.44
2019-02-18T19:17:17.280Z,49.41
2019-02-18T19:19:48.763Z,49.57
2019-02-18T19:22:20.207Z,49.76
2019-02-18T19:24:51.855Z,49.93
2019-02-18T19:27:23.210Z,50.44
2019-02-18T19:29:54.488Z,50.66
2019-02-18T19:32:25.909Z,50.35
2019-02-18T19:34:57.423Z,50.79
2019-02-18T19:37:29.129Z,51.15
2019-02-18T19:40:00.469Z,51.27
2019-02-18T19:42:31.779Z,51.32
2019-02-18T19:45:03.109Z,51.72
2019-02-18T19:47:34.395Z,52.00
2019-02-18T19:50:05.919Z,51.95
2019-02-18T19:52:37.247Z,52.19
2019-02-18T19:55:09.332Z,52.15
2019-02-18T19:57:40.678Z,52.31
2019-02-18T20:00:14.688Z,52.34
2019-02-18T20:02:45.973Z,53.08
2019-02-18T20:05:17.322Z,53.67
2019-02-18T20:07:48.590Z,53.36
2019-02-18T20:10:19.946Z,53.91
2019-02-18T20:12:51.315Z,53.35
2019-02-18T20:15:22.651Z,53.47
2019-02-18T20:17:54.095Z,53.77
2019-02-18T20:20:25.448Z,53.72
2019-02-18T20:22:56.691Z,53.18
2019-02-18T20:25:27.951Z,53.35
2019-02-18T20:27:59.346Z,53.72
2019-02-18T20:30:30.831Z,53.63
2019-02-18T20:33:02.105Z,53.62
2019-02-18T20:35:33.440Z,53.35
2019-02-18T20:38:05.010Z,53.38
2019-02-18T20:40:36.772Z,53.60
2019-02-18T20:43:08.189Z,53.43
2019-02-18T20:45:39.666Z,54.35
2019-02-18T20:48:11.047Z,54.55
2019-02-18T20:50:43.581Z,54.90
2019-02-18T20:53:15.759Z,54.88
2019-02-18T20:55:47.271Z,54.55
2019-02-18T20:58:18.443Z,54.97
2019-02-18T21:00:49.726Z,55.26
2019-02-18T21:03:22.296Z,55.22
2019-02-18T21:05:53.635Z,55.64
2019-02-18T21:08:24.936Z,55.76
2019-02-18T21:10:56.465Z,56.13
2019-02-18T21:13:27.646Z,56.25
2019-02-18T21:15:59.144Z,56.25
2019-02-18T21:18:30.628Z,56.30
2019-02-18T21:21:01.950Z,56.46
2019-02-18T21:23:33.240Z,56.19
2019-02-18T21:26:04.547Z,56.50
2019-02-18T21:28:36.128Z,56.91
2019-02-18T21:31:07.430Z,57.17
2019-02-18T21:33:38.666Z,57.52
2019-02-18T21:36:09.966Z,56.97
2019-02-18T21:38:41.520Z,57.20
2019-02-18T21:41:13.235Z,57.22
2019-02-18T21:43:44.514Z,57.85
2019-02-18T21:46:15.777Z,58.14
2019-02-18T21:48:47.067Z,58.50
2019-02-18T21:51:18.394Z,59.39
2019-02-18T21:53:50.127Z,59.49
2019-02-18T21:56:21.427Z,59.16
2019-02-18T21:58:52.740Z,59.13
2019-02-18T22:01:24.015Z,59.12
2019-02-18T22:03:55.341Z,59.27
2019-02-18T22:06:26.974Z,59.43
2019-02-18T22:08:58.327Z,59.50
2019-02-18T22:11:29.567Z,59.86
2019-02-18T22:14:03.487Z,60.16
2019-02-18T22:16:34.728Z,59.61
2019-02-18T22:19:06.387Z,59.49
2019-02-18T22:21:37.645Z,60.06
2019-02-18T22:24:08.897Z,60.43
2019-02-18T22:26:40.264Z,60.63
2019-02-18T22:29:11.486Z,60.66
2019-02-18T22:31:42.780Z,61.32
2019-02-18T22:34:13.980Z,62.04
2019-02-18T22:36:45.254Z,61.35
2019-02-18T22:39:16.474Z,61.55
2019-02-18T22:41:47.785Z,61.76
2019-02-18T22:44:19.019Z,61.81
2019-02-18T22:46:50.503Z,62.28
2019-02-18T22:49:21.776Z,62.28
2019-02-18T22:51:53.049Z,62.28
2019-02-18T22:54:24.370Z,62.53
2019-02-18T22:56:55.617Z,62.53
2019-02-18T22:59:26.905Z,62.79
2019-02-18T23:01:58.186Z,62.83
2019-02-18T23:04:29.449Z,62.98
2019-02-18T23:07:00.694Z,63.00
2019-02-18T23:09:32.060Z,62.94
2019-02-18T23:12:03.345Z,63.02
2019-02-18T23:14:34.624Z,63.35
2019-02-18T23:17:05.899Z,62.94
2019-02-18T23:19:37.149Z,63.49
2019-02-18T23:22:08.504Z,63.36
2019-02-18T23:24:39.727Z,62.77
2019-02-18T23:27:11.204Z,62.41
2019-02-18T23:29:42.489Z,61.96
2019-02-18T23:32:13.765Z,61.54
2019-02-18T23:34:45.015Z,61.94
2019-02-18T23:37:16.309Z,61.93
2019-02-18T23:39:47.554Z,62.26
2019-02-18T23:42:18.833Z,61.76
2019-02-18T23:44:50.170Z,62.18
2019-02-18T23:47:22.428Z,62.34
2019-02-18T23:49:53.580Z,62.61
2019-02-18T23:52:24.796Z,63.20
2019-02-18T23:54:55.964Z,63.81
2019-02-18T23:57:27.268Z,63.75
2019-02-18T23:59:58.506Z,64.21
